createdAt,value
2022-08-03T00:00:26.973Z,53.94
2022-08-03T00:02:54.015Z,54.12
2022-08-03T00:05:21.039Z,54.08
2022-08-03T00:07:48.515Z,53.98
2022-08-03T00:10:16.279Z,53.67
2022-08-03T00:12:42.958Z,53.74
2022-08-03T00:15:15.059Z,55.05
2022-08-03T00:17:52.518Z,54.18
2022-08-03T00:20:20.014Z,53.90
2022-08-03T00:22:46.691Z,54.42
2022-08-03T00:25:13.788Z,54.64
2022-08-03T00:27:40.395Z,54.34
2022-08-03T00:30:07.749Z,54.21
2022-08-03T00:32:34.363Z,54.47
2022-08-03T00:35:01.032Z,54.81
2022-08-03T00:37:41.617Z,54.97
2022-08-03T00:40:11.786Z,55.85
2022-08-03T00:42:50.638Z,54.27
2022-08-03T00:45:18.676Z,54.62
2022-08-03T00:47:45.844Z,54.83
2022-08-03T00:50:12.961Z,55.22
2022-08-03T00:52:40.321Z,54.80
2022-08-03T00:55:07.301Z,55.15
2022-08-03T00:57:34.067Z,55.52
2022-08-03T01:00:01.211Z,55.41
2022-08-03T01:02:29.427Z,55.34
2022-08-03T01:04:56.593Z,55.11
2022-08-03T01:07:31.737Z,54.70
2022-08-03T01:10:06.438Z,55.14
2022-08-03T01:12:44.090Z,55.33
2022-08-03T01:15:21.670Z,56.08
2022-08-03T01:17:56.311Z,57.19
2022-08-03T01:20:25.152Z,56.19
2022-08-03T01:22:54.822Z,55.82
2022-08-03T01:29:11.257Z,56.12
2022-08-03T01:33:00.127Z,56.47
2022-08-03T01:34:41.295Z,56.49
2022-08-03T01:37:11.023Z,56.45
2022-08-03T01:39:41.115Z,57.85
2022-08-03T01:42:11.680Z,56.87
2022-08-03T01:44:41.797Z,57.08
2022-08-03T01:47:10.033Z,57.37
2022-08-03T01:49:43.411Z,57.01
2022-08-03T01:52:11.588Z,57.92
2022-08-03T01:54:43.318Z,56.84
2022-08-03T01:57:10.843Z,57.33
2022-08-03T01:59:39.481Z,57.37
2022-08-03T02:02:28.277Z,56.92
2022-08-03T02:04:57.767Z,56.69
2022-08-03T02:07:26.937Z,56.98
2022-08-03T02:09:55.628Z,58.36
2022-08-03T02:12:25.142Z,57.88
2022-08-03T02:14:52.049Z,58.05
2022-08-03T02:17:39.603Z,57.66
2022-08-03T02:20:08.866Z,57.25
2022-08-03T02:22:39.225Z,57.01
2022-08-03T02:25:08.532Z,57.09
2022-08-03T02:27:43.184Z,56.91
2022-08-03T02:30:12.487Z,57.15
2022-08-03T02:32:41.082Z,56.46
2022-08-03T02:35:12.658Z,57.94
2022-08-03T02:37:49.861Z,59.03
2022-08-03T02:40:19.032Z,58.78
2022-08-03T02:42:47.269Z,58.18
2022-08-03T02:45:16.811Z,58.69
2022-08-03T02:47:54.495Z,58.59
2022-08-03T02:50:23.248Z,58.66
2022-08-03T02:52:51.353Z,57.93
2022-08-03T02:55:21.708Z,57.11
2022-08-03T02:57:49.978Z,57.75
2022-08-03T03:00:19.436Z,57.43
2022-08-03T03:02:56.973Z,57.33
2022-08-03T03:05:54.961Z,57.81
2022-08-03T03:08:18.707Z,57.22
2022-08-03T03:10:49.011Z,57.70
2022-08-03T03:13:22.630Z,58.00
2022-08-03T03:15:50.928Z,57.82
2022-08-03T03:18:22.222Z,57.52
2022-08-03T03:20:51.625Z,57.25
2022-08-03T03:23:20.324Z,57.66
2022-08-03T03:25:47.077Z,58.41
2022-08-03T03:28:14.625Z,58.50
2022-08-03T03:30:41.999Z,58.55
2022-08-03T03:33:08.884Z,58.22
2022-08-03T03:35:38.818Z,57.65
2022-08-03T03:38:06.906Z,57.65
2022-08-03T03:40:35.732Z,57.65
2022-08-03T03:43:03.298Z,57.75
2022-08-03T03:45:31.766Z,57.84
2022-08-03T03:48:00.551Z,56.88
2022-08-03T03:50:28.222Z,57.33
2022-08-03T03:52:54.902Z,57.73
2022-08-03T03:55:21.687Z,58.01
2022-08-03T03:57:48.342Z,57.63
2022-08-03T04:00:17.185Z,57.51
2022-08-03T04:02:44.821Z,57.65
2022-08-03T04:05:30.622Z,57.95
2022-08-03T04:08:24.374Z,57.51
2022-08-03T04:10:59.608Z,56.31
2022-08-03T04:13:49.264Z,56.45
2022-08-03T04:16:19.775Z,57.34
2022-08-03T04:18:50.572Z,57.56
2022-08-03T04:21:21.520Z,59.18
2022-08-03T04:23:51.407Z,58.47
2022-08-03T04:26:21.595Z,58.68
2022-08-03T04:28:50.531Z,58.49
2022-08-03T04:31:20.531Z,58.61
2022-08-03T04:33:48.613Z,58.67
2022-08-03T04:36:20.984Z,58.04
2022-08-03T04:38:57.251Z,57.65
2022-08-03T04:41:26.615Z,58.71
2022-08-03T04:43:56.227Z,58.86
2022-08-03T04:46:26.327Z,59.30
2022-08-03T04:48:53.714Z,58.92
2022-08-03T04:51:21.171Z,58.88
2022-08-03T04:53:48.131Z,59.46
2022-08-03T04:56:14.807Z,59.49
2022-08-03T04:58:41.638Z,59.59
2022-08-03T05:01:08.362Z,59.13
2022-08-03T05:03:35.150Z,58.87
2022-08-03T05:06:11.077Z,58.94
2022-08-03T05:08:45.996Z,58.87
2022-08-03T05:11:13.366Z,59.47
2022-08-03T05:13:40.019Z,59.30
2022-08-03T05:16:06.662Z,59.34
2022-08-03T05:18:33.739Z,59.86
2022-08-03T05:21:00.399Z,60.00
2022-08-03T05:23:27.226Z,59.57
2022-08-03T05:25:53.862Z,59.59
2022-08-03T05:28:20.604Z,60.61
2022-08-03T05:30:47.270Z,59.56
2022-08-03T05:33:13.945Z,59.35
2022-08-03T05:35:57.366Z,59.38
2022-08-03T05:38:28.736Z,59.31
2022-08-03T05:41:22.294Z,60.62
2022-08-03T05:43:47.907Z,60.77
2022-08-03T05:46:14.645Z,61.23
2022-08-03T05:48:42.466Z,61.72
2022-08-03T05:51:11.850Z,63.23
2022-08-03T05:53:39.669Z,63.46
2022-08-03T05:56:13.714Z,62.09
2022-08-03T05:58:46.403Z,60.69
2022-08-03T06:01:13.398Z,61.33
2022-08-03T06:03:40.249Z,61.04
2022-08-03T06:06:06.977Z,60.79
2022-08-03T06:08:34.469Z,59.47
2022-08-03T06:11:01.200Z,58.85
2022-08-03T06:13:27.879Z,58.16
2022-08-03T06:15:54.537Z,58.35
2022-08-03T06:18:21.325Z,58.79
2022-08-03T06:20:49.441Z,58.20
2022-08-03T06:23:18.525Z,58.68
2022-08-03T06:25:45.986Z,57.83
2022-08-03T06:28:42.371Z,57.71
2022-08-03T06:31:01.512Z,59.29
2022-08-03T06:34:30.651Z,58.29
2022-08-03T06:36:15.460Z,57.06
2022-08-03T06:38:42.208Z,58.11
2022-08-03T06:41:08.875Z,57.71
2022-08-03T06:44:02.596Z,56.85
2022-08-03T06:46:25.901Z,56.84
2022-08-03T06:48:52.998Z,57.97
2022-08-03T06:51:19.862Z,57.57
2022-08-03T06:53:46.540Z,58.64
2022-08-03T06:56:13.438Z,58.19
2022-08-03T06:58:40.211Z,57.02
2022-08-03T07:01:06.919Z,56.22
2022-08-03T07:03:33.663Z,56.08
2022-08-03T07:06:00.332Z,55.93
2022-08-03T07:08:33.495Z,54.76
2022-08-03T07:11:01.130Z,55.13
2022-08-03T07:13:27.838Z,55.25
2022-08-03T07:15:56.072Z,53.95
2022-08-03T07:18:29.158Z,54.95
2022-08-03T07:20:59.787Z,54.73
2022-08-03T07:23:26.476Z,53.70
2022-08-03T07:25:53.325Z,53.42
2022-08-03T07:28:20.398Z,55.05
2022-08-03T07:30:47.273Z,53.94
2022-08-03T07:33:15.193Z,54.67
2022-08-03T07:35:42.529Z,54.78
2022-08-03T07:38:09.236Z,53.30
2022-08-03T07:40:36.032Z,57.35
2022-08-03T07:43:03.615Z,55.53
2022-08-03T07:45:31.405Z,53.81
2022-08-03T07:47:58.316Z,54.22
2022-08-03T07:50:25.020Z,56.03
2022-08-03T07:52:53.142Z,56.07
2022-08-03T07:55:24.347Z,55.38
2022-08-03T07:58:09.965Z,55.65
2022-08-03T08:00:36.979Z,56.22
2022-08-03T08:03:04.848Z,55.46
2022-08-03T08:05:31.768Z,56.54
2022-08-03T08:07:58.552Z,55.20
2022-08-03T08:10:25.392Z,55.70
2022-08-03T08:12:52.490Z,55.45
2022-08-03T08:15:19.191Z,55.18
2022-08-03T08:17:54.075Z,54.90
2022-08-03T08:20:30.849Z,53.43
2022-08-03T08:23:13.919Z,54.47
2022-08-03T08:25:52.226Z,54.62
2022-08-03T08:28:32.482Z,54.36
2022-08-03T08:31:00.653Z,53.24
2022-08-03T08:33:37.361Z,53.65
2022-08-03T08:36:15.626Z,52.32
2022-08-03T08:38:44.687Z,51.90
2022-08-03T08:41:13.122Z,51.93
2022-08-03T08:43:40.090Z,51.03
2022-08-03T08:46:08.551Z,50.99
2022-08-03T08:48:36.444Z,50.68
2022-08-03T08:51:03.399Z,50.03
2022-08-03T08:53:32.858Z,49.65
2022-08-03T08:56:02.302Z,48.33
2022-08-03T08:58:33.034Z,48.53
2022-08-03T09:00:59.884Z,48.74
2022-08-03T09:03:30.025Z,46.57
2022-08-03T09:05:59.354Z,46.61
2022-08-03T09:08:26.430Z,46.96
2022-08-03T09:10:53.066Z,46.29
2022-08-03T09:13:19.760Z,46.06
2022-08-03T09:15:57.171Z,46.70
2022-08-03T09:18:32.809Z,44.88
2022-08-03T09:21:34.146Z,44.03
2022-08-03T09:24:05.865Z,44.40
2022-08-03T09:26:38.092Z,43.86
2022-08-03T09:29:14.531Z,43.72
2022-08-03T09:31:46.941Z,44.04
2022-08-03T09:34:18.260Z,43.43
2022-08-03T09:36:47.621Z,44.23
2022-08-03T09:39:41.560Z,42.56
2022-08-03T09:42:11.647Z,41.35
2022-08-03T09:44:44.423Z,41.30
2022-08-03T09:47:12.734Z,41.89
2022-08-03T09:49:44.435Z,41.68
2022-08-03T09:52:38.015Z,42.22
2022-08-03T09:56:31.652Z,41.88
2022-08-03T09:58:06.489Z,41.43
2022-08-03T10:00:33.131Z,41.27
2022-08-03T10:03:05.856Z,40.95
2022-08-03T10:05:33.271Z,41.40
2022-08-03T10:07:59.914Z,41.28
2022-08-03T10:10:31.160Z,40.64
2022-08-03T10:13:00.326Z,40.19
2022-08-03T10:16:23.556Z,40.36
2022-08-03T10:18:14.522Z,38.36
2022-08-03T10:20:49.831Z,39.04
2022-08-03T10:23:18.207Z,39.58
2022-08-03T10:25:48.473Z,39.06
2022-08-03T10:28:18.425Z,38.30
2022-08-03T10:30:50.335Z,38.30
2022-08-03T10:33:52.044Z,38.59
2022-08-03T10:36:15.013Z,38.63
2022-08-03T10:38:47.368Z,37.24
2022-08-03T10:41:16.896Z,37.87
2022-08-03T10:43:50.595Z,37.88
2022-08-03T10:46:21.374Z,37.60
2022-08-03T10:48:51.755Z,36.08
2022-08-03T10:51:20.146Z,36.96
2022-08-03T10:53:55.074Z,36.02
2022-08-03T10:56:53.472Z,34.58
2022-08-03T10:59:46.264Z,35.48
2022-08-03T11:02:14.384Z,35.84
2022-08-03T11:04:41.945Z,35.13
2022-08-03T11:07:24.544Z,34.61
2022-08-03T11:09:52.030Z,34.49
2022-08-03T11:12:30.437Z,33.07
2022-08-03T11:15:04.943Z,34.32
2022-08-03T11:17:33.817Z,34.02
2022-08-03T11:20:13.835Z,33.99
2022-08-03T11:23:01.108Z,34.44
2022-08-03T11:25:53.880Z,32.91
2022-08-03T11:28:28.680Z,33.94
2022-08-03T11:30:55.516Z,34.24
2022-08-03T11:33:31.796Z,33.88
2022-08-03T11:36:02.317Z,34.49
2022-08-03T11:38:29.075Z,33.53
2022-08-03T11:40:55.740Z,34.41
2022-08-03T11:43:22.427Z,33.97
2022-08-03T11:46:28.260Z,33.47
2022-08-03T11:49:09.758Z,32.63
2022-08-03T11:51:37.944Z,33.35
2022-08-03T11:54:06.312Z,33.12
2022-08-03T11:56:47.832Z,32.51
2022-08-03T11:59:20.269Z,32.83
2022-08-03T12:01:47.737Z,33.04
2022-08-03T12:04:16.417Z,32.21
2022-08-03T12:06:58.732Z,32.46
2022-08-03T12:09:25.400Z,31.65
2022-08-03T12:12:00.435Z,32.44
2022-08-03T12:14:50.625Z,32.01
2022-08-03T12:17:16.556Z,31.91
2022-08-03T12:19:44.073Z,30.57
2022-08-03T12:22:10.945Z,31.53
2022-08-03T12:24:46.863Z,32.30
2022-08-03T12:27:23.739Z,30.46
2022-08-03T12:29:58.638Z,31.68
2022-08-03T12:32:26.592Z,31.32
2022-08-03T12:34:53.504Z,31.71
2022-08-03T12:37:23.264Z,30.79
2022-08-03T12:40:02.056Z,29.84
2022-08-03T12:42:37.515Z,30.58
2022-08-03T12:45:23.519Z,28.67
2022-08-03T12:48:01.750Z,29.04
2022-08-03T12:50:33.846Z,29.64
2022-08-03T12:53:04.649Z,29.83
2022-08-03T12:55:40.199Z,28.63
2022-08-03T12:58:36.187Z,29.05
2022-08-03T13:01:09.746Z,29.75
2022-08-03T13:03:55.867Z,29.05
2022-08-03T13:06:26.572Z,28.28
2022-08-03T13:09:07.375Z,28.26
2022-08-03T13:11:55.929Z,28.42
2022-08-03T13:14:23.695Z,29.07
2022-08-03T13:16:50.592Z,28.85
2022-08-03T13:19:17.299Z,28.59
2022-08-03T13:22:01.904Z,26.45
2022-08-03T13:24:32.570Z,26.85
2022-08-03T13:27:00.163Z,27.68
2022-08-03T13:29:26.835Z,27.56
2022-08-03T13:31:53.764Z,26.73
2022-08-03T13:34:23.609Z,26.71
2022-08-03T13:37:09.284Z,27.40
2022-08-03T13:39:57.725Z,27.19
2022-08-03T13:42:23.579Z,27.68
2022-08-03T13:44:50.882Z,26.62
2022-08-03T13:47:17.749Z,27.59
2022-08-03T13:49:56.949Z,26.90
2022-08-03T13:52:29.989Z,27.32
2022-08-03T13:54:56.698Z,27.29
2022-08-03T13:58:04.732Z,26.64
2022-08-03T14:00:12.138Z,27.30
2022-08-03T14:02:38.915Z,27.62
2022-08-03T14:05:05.883Z,27.18
2022-08-03T14:07:32.561Z,27.11
2022-08-03T14:09:59.245Z,26.58
2022-08-03T14:12:25.898Z,26.38
2022-08-03T14:14:52.557Z,27.18
2022-08-03T14:17:19.817Z,26.70
2022-08-03T14:19:53.229Z,27.06
2022-08-03T14:22:20.837Z,26.45
2022-08-03T14:24:47.503Z,26.74
2022-08-03T14:27:15.815Z,27.20
2022-08-03T14:29:42.506Z,26.04
2022-08-03T14:32:12.513Z,26.29
2022-08-03T14:34:40.094Z,26.22
2022-08-03T14:37:06.759Z,27.13
2022-08-03T14:42:20.528Z,25.63
2022-08-03T14:44:47.685Z,26.20
2022-08-03T14:47:14.643Z,27.28
2022-08-03T14:50:31.009Z,26.45
2022-08-03T14:52:28.463Z,27.15
2022-08-03T14:54:55.157Z,26.77
2022-08-03T14:57:22.218Z,25.55
2022-08-03T14:59:56.635Z,26.21
2022-08-03T15:02:25.468Z,26.50
2022-08-03T15:04:52.913Z,25.93
2022-08-03T15:07:20.984Z,26.38
2022-08-03T15:09:48.014Z,25.99
2022-08-03T15:12:14.674Z,26.39
2022-08-03T15:14:41.352Z,26.92
2022-08-03T15:17:08.220Z,26.19
2022-08-03T15:20:01.408Z,26.57
2022-08-03T15:22:25.129Z,26.25
2022-08-03T15:24:52.368Z,25.77
2022-08-03T15:27:19.369Z,26.07
2022-08-03T15:30:09.460Z,25.83
2022-08-03T15:32:34.175Z,26.94
2022-08-03T15:35:01.428Z,26.65
2022-08-03T15:37:28.437Z,26.14
2022-08-03T15:39:59.603Z,27.24
2022-08-03T15:42:31.151Z,26.39
2022-08-03T15:44:58.150Z,26.12
2022-08-03T15:47:24.989Z,26.42
2022-08-03T15:49:51.680Z,26.65
2022-08-03T15:52:18.360Z,26.84
2022-08-03T15:54:44.995Z,26.58
2022-08-03T15:57:11.761Z,26.62
2022-08-03T15:59:38.474Z,27.54
2022-08-03T16:02:05.213Z,27.01
2022-08-03T16:04:31.847Z,27.85
2022-08-03T16:06:58.501Z,27.84
2022-08-03T16:09:43.082Z,27.52
2022-08-03T16:12:14.612Z,27.15
2022-08-03T16:14:52.371Z,27.42
2022-08-03T16:17:20.493Z,27.30
2022-08-03T16:19:47.470Z,28.10
2022-08-03T16:22:14.510Z,27.64
2022-08-03T16:24:41.485Z,27.05
2022-08-03T16:27:37.419Z,27.62
2022-08-03T16:29:55.237Z,28.03
2022-08-03T16:32:21.935Z,27.96
2022-08-03T16:34:48.648Z,27.84
2022-08-03T16:37:37.479Z,28.47
2022-08-03T16:40:03.446Z,27.92
2022-08-03T16:42:30.220Z,27.43
2022-08-03T16:44:56.868Z,27.94
2022-08-03T16:47:23.597Z,28.06
2022-08-03T16:49:53.275Z,28.39
2022-08-03T16:52:23.890Z,29.02
2022-08-03T16:54:53.610Z,28.85
2022-08-03T16:57:29.897Z,28.48
2022-08-03T17:00:33.792Z,28.75
2022-08-03T17:03:04.426Z,28.98
2022-08-03T17:05:47.377Z,29.71
2022-08-03T17:08:27.116Z,29.06
2022-08-03T17:10:54.834Z,29.57
2022-08-03T17:13:22.801Z,29.34
2022-08-03T17:16:01.361Z,29.86
2022-08-03T17:18:35.535Z,30.04
2022-08-03T17:21:05.954Z,29.93
2022-08-03T17:23:45.718Z,29.77
2022-08-03T17:26:21.547Z,30.39
2022-08-03T17:28:57.301Z,30.24
2022-08-03T17:31:31.865Z,30.29
2022-08-03T17:34:01.709Z,30.49
2022-08-03T17:37:01.646Z,30.72
2022-08-03T17:39:30.783Z,30.98
2022-08-03T17:42:31.218Z,31.36
2022-08-03T17:44:55.722Z,30.92
2022-08-03T17:47:23.045Z,30.99
2022-08-03T17:49:56.979Z,31.19
2022-08-03T17:52:34.432Z,31.21
2022-08-03T17:55:55.011Z,31.55
2022-08-03T17:58:15.396Z,31.09
2022-08-03T18:01:05.160Z,30.81
2022-08-03T18:03:59.247Z,31.30
2022-08-03T18:06:37.001Z,31.46
2022-08-03T18:09:05.342Z,31.38
2022-08-03T18:11:58.092Z,31.14
2022-08-03T18:14:38.310Z,31.21
2022-08-03T18:17:15.627Z,31.43
2022-08-03T18:20:01.967Z,31.58
2022-08-03T18:22:32.164Z,31.06
2022-08-03T18:25:07.716Z,31.30
2022-08-03T18:27:45.912Z,31.28
2022-08-03T18:30:15.474Z,31.40
2022-08-03T18:33:00.730Z,31.12
2022-08-03T18:35:52.710Z,31.33
2022-08-03T18:38:18.773Z,31.18
2022-08-03T18:40:48.730Z,31.17
2022-08-03T18:43:17.599Z,31.98
2022-08-03T18:45:57.385Z,31.76
2022-08-03T18:48:49.065Z,31.79
2022-08-03T18:51:28.788Z,31.84
2022-08-03T18:54:45.434Z,32.42
2022-08-03T18:57:18.721Z,32.07
2022-08-03T19:00:17.454Z,32.71
2022-08-03T19:03:02.476Z,33.32
2022-08-03T19:05:49.330Z,32.81
2022-08-03T19:08:33.440Z,33.38
2022-08-03T19:11:05.885Z,33.03
2022-08-03T19:13:44.429Z,33.00
2022-08-03T19:16:42.043Z,33.46
2022-08-03T19:19:11.098Z,34.26
2022-08-03T19:21:44.550Z,34.12
2022-08-03T19:24:13.580Z,34.32
2022-08-03T19:26:42.543Z,34.34
2022-08-03T19:29:16.812Z,34.75
2022-08-03T19:31:59.004Z,33.99
2022-08-03T19:34:27.639Z,34.95
2022-08-03T19:36:55.585Z,34.98
2022-08-03T19:39:24.398Z,35.52
2022-08-03T19:41:56.371Z,36.29
2022-08-03T19:44:29.280Z,35.80
2022-08-03T19:47:11.200Z,35.61
2022-08-03T19:49:59.949Z,36.67
2022-08-03T19:52:35.595Z,36.85
2022-08-03T19:55:12.311Z,36.43
2022-08-03T19:57:42.444Z,37.11
2022-08-03T20:00:13.903Z,36.75
2022-08-03T20:02:41.454Z,37.23
2022-08-03T20:05:12.047Z,37.19
2022-08-03T20:07:47.891Z,37.89
2022-08-03T20:10:16.743Z,38.03
2022-08-03T20:12:44.955Z,37.96
2022-08-03T20:15:12.078Z,38.67
2022-08-03T20:17:57.086Z,37.98
2022-08-03T20:20:32.709Z,39.48
2022-08-03T20:23:06.941Z,38.78
2022-08-03T20:25:48.737Z,38.88
2022-08-03T20:28:35.328Z,38.21
2022-08-03T20:31:25.191Z,39.32
2022-08-03T20:34:00.608Z,40.00
2022-08-03T20:36:27.647Z,40.68
2022-08-03T20:38:57.696Z,42.87
2022-08-03T20:41:25.133Z,41.06
2022-08-03T20:43:51.883Z,41.32
2022-08-03T20:46:29.640Z,41.10
2022-08-03T20:49:06.134Z,40.66
2022-08-03T20:51:50.678Z,41.21
2022-08-03T20:54:28.948Z,40.97
2022-08-03T20:56:57.980Z,41.70
2022-08-03T20:59:36.937Z,41.62
2022-08-03T21:02:19.536Z,41.71
2022-08-03T21:04:56.224Z,42.43
2022-08-03T21:07:24.585Z,41.89
2022-08-03T21:10:13.753Z,42.83
2022-08-03T21:13:14.914Z,41.41
2022-08-03T21:16:02.980Z,41.84
2022-08-03T21:18:37.330Z,41.75
2022-08-03T21:21:06.273Z,42.53
2022-08-03T21:23:48.145Z,42.96
2022-08-03T21:26:23.699Z,42.58
2022-08-03T21:28:52.133Z,42.38
2022-08-03T21:31:24.322Z,42.94
2022-08-03T21:33:57.029Z,42.80
2022-08-03T21:36:28.190Z,43.11
2022-08-03T21:38:57.300Z,43.32
2022-08-03T21:41:26.552Z,43.77
2022-08-03T21:43:53.466Z,43.09
2022-08-03T21:46:21.844Z,43.14
2022-08-03T21:48:54.566Z,42.98
2022-08-03T21:51:24.554Z,44.13
2022-08-03T21:54:02.441Z,43.84
2022-08-03T21:56:42.042Z,42.80
2022-08-03T21:59:16.446Z,44.09
2022-08-03T22:01:45.654Z,44.06
2022-08-03T22:04:55.128Z,44.69
2022-08-03T22:07:05.379Z,44.72
2022-08-03T22:09:34.245Z,43.77
2022-08-03T22:12:00.993Z,44.42
2022-08-03T22:14:27.838Z,44.20
2022-08-03T22:16:55.332Z,44.14
2022-08-03T22:19:22.047Z,44.21
2022-08-03T22:21:49.403Z,44.30
2022-08-03T22:24:24.039Z,44.76
2022-08-03T22:27:09.915Z,44.96
2022-08-03T22:29:39.817Z,44.96
2022-08-03T22:32:06.872Z,45.58
2022-08-03T22:34:34.375Z,45.11
2022-08-03T22:37:03.640Z,44.62
2022-08-03T22:39:31.487Z,45.05
2022-08-03T22:42:01.617Z,44.96
2022-08-03T22:44:28.437Z,44.85
2022-08-03T22:46:56.167Z,45.34
2022-08-03T22:49:22.944Z,45.11
2022-08-03T22:51:52.008Z,45.61
2022-08-03T22:54:19.112Z,46.13
2022-08-03T22:56:50.365Z,45.67
2022-08-03T22:59:41.006Z,46.33
2022-08-03T23:02:15.134Z,46.58
2022-08-03T23:04:51.675Z,46.61
2022-08-03T23:07:30.946Z,46.87
2022-08-03T23:09:58.383Z,46.85
2022-08-03T23:12:25.382Z,46.31
2022-08-03T23:14:55.412Z,47.05
2022-08-03T23:17:23.971Z,47.17
2022-08-03T23:19:52.777Z,47.38
2022-08-03T23:22:30.289Z,47.30
2022-08-03T23:24:58.578Z,46.64
2022-08-03T23:27:27.413Z,46.71
2022-08-03T23:29:54.349Z,47.46
2022-08-03T23:32:21.202Z,47.81
2022-08-03T23:35:09.098Z,47.13
2022-08-03T23:38:03.926Z,47.69
2022-08-03T23:40:29.551Z,48.91
2022-08-03T23:42:58.254Z,48.39
2022-08-03T23:45:27.600Z,48.59
2022-08-03T23:47:54.442Z,48.33
2022-08-03T23:50:21.620Z,48.55
2022-08-03T23:53:15.196Z,48.76
2022-08-03T23:56:01.115Z,48.26
2022-08-03T23:58:48.957Z,48.98
